Time;durP1;ratioP1;P1;durP2;ratioP2;P2;SDS_P1;SDS_P2;PMS_P1;PMS_P2;Temp;Humidity;BMP_temperature;BMP_pressure;BME280_temperature;BME280_humidity;BME280_pressure;Samples;Min_cycle;Max_cycle;Signal;HPM_P1;HPM_P2
2022/07/16 00:03:33;;;;;;;;;;;;;;;;;;5088948;28;45172;-83
2022/07/16 00:05:59;;;;;;;;;;;;;;;;;;5086224;28;47014;-82
2022/07/16 00:08:25;;;;;;;;;;;;;;;;;;5091917;28;42286;-82
2022/07/16 00:10:52;;;;;;;;;;;;;;;;;;5091755;28;46258;-82
2022/07/16 00:13:18;;;;;;;;;;;;;;;;;;5092857;28;40753;-82
2022/07/16 00:15:44;;;;;;;;;;;;;;;;;;5092177;28;47314;-81
2022/07/16 00:24:34;;;;;;;;;;;;;;;;;;5017159;28;19930;-81
2022/07/16 00:27:00;;;;;;;;;;;;;;;;;;4998061;28;46879;-82
2022/07/16 00:29:27;;;;;;;;;;;;;;;;;;4995339;28;43562;-81
2022/07/16 00:31:54;;;;;;;;;;;;;;;;;;4998487;28;49293;-81
2022/07/16 00:34:20;;;;;;;;;;;;;;;;;;5010779;28;43568;-81
2022/07/16 00:36:58;;;;;;;;;;;;;;;;;;4993574;28;48213;-81
2022/07/16 00:39:33;;;;;;;;;;;;;;;;;;4995391;28;45839;-81
2022/07/16 00:42:00;;;;;;;;;;;;;;;;;;5012380;28;44668;-81
2022/07/16 00:44:26;;;;;;;;;;;;;;;;;;4995106;28;46438;-82
2022/07/16 00:46:52;;;;;;;;;;;;;;;;;;4994583;28;46871;-80
2022/07/16 00:49:21;;;;;;;;;;;;;;;;;;5013236;28;44865;-80
2022/07/16 00:51:47;;;;;;;;;;;;;;;;;;4996534;28;47396;-80
2022/07/16 00:54:14;;;;;;;;;;;;;;;;;;5011877;28;46537;-80
2022/07/16 00:56:40;;;;;;;;;;;;;;;;;;5010734;28;48034;-81
2022/07/16 00:59:06;;;;;;;;;;;;;;;;;;5003141;28;47309;-80
2022/07/16 01:01:33;;;;;;;;;;;;;;;;;;5020448;28;43038;-80
2022/07/16 01:03:59;;;;;;;;;;;;;;;;;;5013689;28;46434;-80
2022/07/16 01:06:25;;;;;;;;;;;;;;;;;;5010691;28;47319;-80
2022/07/16 01:08:52;;;;;;;;;;;;;;;;;;5015611;28;44445;-80
2022/07/16 01:11:18;;;;;;;;;;;;;;;;;;5014625;28;46333;-80
2022/07/16 01:13:44;;;;;;;;;;;;;;;;;;4994326;28;45960;-80
2022/07/16 01:16:11;;;;;;;;;;;;;;;;;;5007442;28;44950;-81
2022/07/16 01:18:37;;;;;;;;;;;;;;;;;;4987850;28;47652;-80
2022/07/16 01:21:03;;;;;;;;;;;;;;;;;;4992369;28;43740;-81
2022/07/16 01:23:30;;;;;;;;;;;;;;;;;;5008050;28;43543;-81
2022/07/16 01:26:00;;;;;;;;;;;;;;;;;;4992669;28;47194;-82
2022/07/16 01:28:27;;;;;;;;;;;;;;;;;;5009577;28;44628;-82
2022/07/16 01:30:53;;;;;;;;;;;;;;;;;;5007426;28;44897;-80
2022/07/16 01:33:20;;;;;;;;;;;;;;;;;;4999921;28;48643;-82
2022/07/16 01:35:46;;;;;;;;;;;;;;;;;;4999671;28;44723;-82
2022/07/16 01:38:13;;;;;;;;;;;;;;;;;;5000707;28;47284;-82
2022/07/16 01:40:39;;;;;;;;;;;;;;;;;;5050519;28;43491;-82
2022/07/16 01:43:05;;;;;;;;;;;;;;;;;;5109490;28;45131;-82
2022/07/16 01:45:32;;;;;;;;;;;;;;;;;;5097293;28;48396;-82
2022/07/16 01:47:58;;;;;;;;;;;;;;;;;;5095202;28;42684;-82
2022/07/16 01:50:24;;;;;;;;;;;;;;;;;;5098243;28;45155;-82
2022/07/16 01:52:51;;;;;;;;;;;;;;;;;;5097810;28;48718;-82
2022/07/16 01:55:17;;;;;;;;;;;;;;;;;;5099282;28;45462;-82
2022/07/16 01:57:43;;;;;;;;;;;;;;;;;;5095609;28;44358;-81
2022/07/16 02:00:09;;;;;;;;;;;;;;;;;;5097335;28;48541;-82
2022/07/16 02:02:36;;;;;;;;;;;;;;;;;;5096970;28;46178;-82
2022/07/16 02:05:02;;;;;;;;;;;;;;;;;;5095445;28;45573;-81
2022/07/16 02:07:28;;;;;;;;;;;;;;;;;;5098231;28;44957;-81
2022/07/16 02:09:54;;;;;;;;;;;;;;;;;;5095078;28;44820;-81
2022/07/16 02:12:21;;;;;;;;;;;;;;;;;;5097051;28;45419;-82
2022/07/16 02:14:47;;;;;;;;;;;;;;;;;;5097822;28;45984;-81
2022/07/16 02:17:13;;;;;;;;;;;;;;;;;;5096764;28;49143;-82
2022/07/16 02:19:40;;;;;;;;;;;;;;;;;;5096919;28;45355;-82
2022/07/16 02:22:07;;;;;;;;;;;;;;;;;;5095126;28;43636;-83
2022/07/16 02:24:33;;;;;;;;;;;;;;;;;;5085871;28;48202;-83
2022/07/16 02:26:59;;;;;;;;;;;;;;;;;;5089247;28;45555;-82
2022/07/16 02:29:26;;;;;;;;;;;;;;;;;;5088981;28;46077;-82
2022/07/16 02:31:52;;;;;;;;;;;;;;;;;;5089671;28;49957;-81
2022/07/16 02:34:18;;;;;;;;;;;;;;;;;;5081454;28;43537;-81
2022/07/16 02:36:44;;;;;;;;;;;;;;;;;;5091554;28;46437;-80
2022/07/16 02:39:11;;;;;;;;;;;;;;;;;;5090945;28;47600;-81
2022/07/16 02:41:37;;;;;;;;;;;;;;;;;;5092254;28;46448;-80
2022/07/16 02:44:03;;;;;;;;;;;;;;;;;;5092298;28;46138;-80
2022/07/16 02:46:29;;;;;;;;;;;;;;;;;;5092503;28;39891;-80
2022/07/16 02:48:56;;;;;;;;;;;;;;;;;;5093180;28;44996;-80
2022/07/16 02:51:22;;;;;;;;;;;;;;;;;;5091997;28;48736;-81
2022/07/16 02:53:49;;;;;;;;;;;;;;;;;;5090335;28;43727;-80
2022/07/16 02:56:15;;;;;;;;;;;;;;;;;;5090007;28;45806;-81
2022/07/16 02:58:41;;;;;;;;;;;;;;;;;;5095802;28;44393;-80
2022/07/16 03:01:08;;;;;;;;;;;;;;;;;;5096845;28;42183;-81
2022/07/16 03:03:34;;;;;;;;;;;;;;;;;;5096537;28;46483;-80
2022/07/16 03:06:00;;;;;;;;;;;;;;;;;;5094084;28;41507;-80
2022/07/16 03:08:27;;;;;;;;;;;;;;;;;;5095380;28;45675;-80
2022/07/16 03:10:53;;;;;;;;;;;;;;;;;;5095424;28;47081;-80
2022/07/16 03:13:19;;;;;;;;;;;;;;;;;;5091411;28;44572;-81
2022/07/16 03:15:45;;;;;;;;;;;;;;;;;;5096431;28;46815;-80
2022/07/16 03:18:12;;;;;;;;;;;;;;;;;;5096347;28;46041;-80
2022/07/16 03:20:38;;;;;;;;;;;;;;;;;;5090780;28;41634;-80
2022/07/16 03:23:04;;;;;;;;;;;;;;;;;;5093984;28;46421;-80
2022/07/16 03:25:30;;;;;;;;;;;;;;;;;;5090797;28;48258;-80
2022/07/16 03:27:57;;;;;;;;;;;;;;;;;;5089920;28;46431;-81
2022/07/16 03:30:23;;;;;;;;;;;;;;;;;;5086398;28;48767;-81
2022/07/16 03:32:49;;;;;;;;;;;;;;;;;;5080537;28;43815;-81
2022/07/16 03:35:16;;;;;;;;;;;;;;;;;;5102191;27;48123;-82
2022/07/16 03:40:27;;;;;;;;;;;;;;;;;;5079653;28;44801;-82
2022/07/16 03:42:53;;;;;;;;;;;;;;;;;;5089011;28;45930;-81
2022/07/16 03:45:20;;;;;;;;;;;;;;;;;;5093375;28;48279;-82
2022/07/16 03:47:46;;;;;;;;;;;;;;;;;;5083416;28;43778;-81
2022/07/16 03:50:12;;;;;;;;;;;;;;;;;;5093386;28;48789;-81
2022/07/16 03:52:42;;;;;;;;;;;;;;;;;;5098954;28;42755;-82
2022/07/16 03:55:08;;;;;;;;;;;;;;;;;;5100195;28;48306;-82
2022/07/16 03:57:34;;;;;;;;;;;;;;;;;;5101046;28;48210;-82
2022/07/16 04:00:01;;;;;;;;;;;;;;;;;;5098983;28;43881;-82
2022/07/16 04:02:27;;;;;;;;;;;;;;;;;;5098238;28;47927;-82
2022/07/16 04:04:54;;;;;;;;;;;;;;;;;;5102993;28;44502;-80
2022/07/16 04:07:20;;;;;;;;;;;;;;;;;;5093933;28;42469;-80
2022/07/16 04:09:46;;;;;;;;;;;;;;;;;;5093203;28;46256;-81
2022/07/16 04:12:12;;;;;;;;;;;;;;;;;;5090241;28;44805;-80
2022/07/16 04:14:39;;;;;;;;;;;;;;;;;;5092074;28;45170;-81
2022/07/16 04:17:05;;;;;;;;;;;;;;;;;;5098718;28;48189;-81
2022/07/16 04:19:31;;;;;;;;;;;;;;;;;;5092735;28;44613;-81
2022/07/16 04:21:57;;;;;;;;;;;;;;;;;;5104796;28;45412;-82
2022/07/16 04:24:27;;;;;;;;;;;;;;;;;;5089648;28;48183;-83
2022/07/16 04:27:00;;;;;;;;;;;;;;;;;;5093846;28;43409;-80
2022/07/16 04:29:26;;;;;;;;;;;;;;;;;;5090863;28;44515;-80
2022/07/16 04:31:52;;;;;;;;;;;;;;;;;;5090468;28;37492;-80
2022/07/16 04:34:18;;;;;;;;;;;;;;;;;;5092883;28;44925;-81
2022/07/16 04:36:45;;;;;;;;;;;;;;;;;;5089899;28;47904;-80
2022/07/16 04:39:11;;;;;;;;;;;;;;;;;;5111895;27;43874;-82
2022/07/16 04:41:38;;;;;;;;;;;;;;;;;;5092927;28;47612;-81
2022/07/16 04:44:04;;;;;;;;;;;;;;;;;;5094714;28;49963;-82
2022/07/16 04:46:30;;;;;;;;;;;;;;;;;;5095742;28;44120;-82
2022/07/16 04:48:57;;;;;;;;;;;;;;;;;;5100246;28;48348;-82
2022/07/16 04:51:23;;;;;;;;;;;;;;;;;;5101349;28;45575;-82
2022/07/16 04:53:49;;;;;;;;;;;;;;;;;;5097712;28;47284;-82
2022/07/16 04:56:16;;;;;;;;;;;;;;;;;;5106327;28;48413;-82
2022/07/16 04:58:42;;;;;;;;;;;;;;;;;;5096010;28;45025;-82
2022/07/16 05:01:08;;;;;;;;;;;;;;;;;;5099710;28;46797;-82
2022/07/16 05:03:34;;;;;;;;;;;;;;;;;;5101943;28;44845;-81
2022/07/16 05:06:01;;;;;;;;;;;;;;;;;;5102025;28;47093;-82
2022/07/16 05:08:27;;;;;;;;;;;;;;;;;;5100789;28;44540;-82
2022/07/16 05:10:53;;;;;;;;;;;;;;;;;;5097687;28;45714;-82
2022/07/16 05:13:20;;;;;;;;;;;;;;;;;;5100659;28;45150;-82
2022/07/16 05:15:46;;;;;;;;;;;;;;;;;;5094894;28;45729;-82
2022/07/16 05:18:12;;;;;;;;;;;;;;;;;;5099652;28;42247;-82
2022/07/16 05:20:38;;;;;;;;;;;;;;;;;;5098687;28;44570;-82
2022/07/16 05:23:05;;;;;;;;;;;;;;;;;;5095981;28;47198;-81
2022/07/16 05:25:31;;;;;;;;;;;;;;;;;;5099669;28;45612;-82
2022/07/16 05:27:57;;;;;;;;;;;;;;;;;;5095372;28;44532;-81
2022/07/16 05:30:23;;;;;;;;;;;;;;;;;;5119235;27;45410;-80
2022/07/16 05:32:50;;;;;;;;;;;;;;;;;;5111844;28;42637;-80
2022/07/16 05:35:16;;;;;;;;;;;;;;;;;;5111842;28;44930;-81
2022/07/16 05:37:43;;;;;;;;;;;;;;;;;;5108082;28;45215;-81
2022/07/16 05:40:10;;;;;;;;;;;;;;;;;;5107154;28;48247;-82
2022/07/16 05:42:36;;;;;;;;;;;;;;;;;;5109626;28;47961;-82
2022/07/16 05:45:04;;;;;;;;;;;;;;;;;;5106603;28;45385;-81
2022/07/16 05:47:32;;;;;;;;;;;;;;;;;;5125150;28;45229;-81
2022/07/16 05:50:01;;;;;;;;;;;;;;;;;;5102146;28;45274;-81
2022/07/16 05:52:28;;;;;;;;;;;;;;;;;;5103549;28;42575;-80
2022/07/16 05:54:54;;;;;;;;;;;;;;;;;;5108345;28;44320;-80
2022/07/16 05:57:20;;;;;;;;;;;;;;;;;;5108983;28;45512;-80
2022/07/16 05:59:47;;;;;;;;;;;;;;;;;;5104299;28;48523;-80
2022/07/16 06:02:13;;;;;;;;;;;;;;;;;;5105370;28;45459;-79
2022/07/16 06:04:39;;;;;;;;;;;;;;;;;;5109805;28;43724;-80
2022/07/16 06:07:05;;;;;;;;;;;;;;;;;;5102872;28;48691;-80
2022/07/16 06:09:32;;;;;;;;;;;;;;;;;;5104500;28;47377;-80
2022/07/16 06:11:58;;;;;;;;;;;;;;;;;;5098560;28;43718;-80
2022/07/16 06:14:25;;;;;;;;;;;;;;;;;;5102019;28;48635;-80
2022/07/16 06:16:51;;;;;;;;;;;;;;;;;;5111399;28;44997;-80
2022/07/16 06:19:18;;;;;;;;;;;;;;;;;;5100943;28;47942;-81
2022/07/16 06:21:44;;;;;;;;;;;;;;;;;;5094713;28;44787;-80
2022/07/16 06:24:11;;;;;;;;;;;;;;;;;;5096643;28;44843;-80
2022/07/16 06:26:37;;;;;;;;;;;;;;;;;;5095038;28;45342;-80
2022/07/16 06:29:03;;;;;;;;;;;;;;;;;;5088560;28;46284;-80
2022/07/16 06:31:29;;;;;;;;;;;;;;;;;;5090003;28;43748;-78
2022/07/16 06:33:56;;;;;;;;;;;;;;;;;;5092121;28;46348;-78
2022/07/16 06:36:22;;;;;;;;;;;;;;;;;;5093271;28;45828;-79
2022/07/16 06:38:48;;;;;;;;;;;;;;;;;;5091740;28;41704;-79
2022/07/16 06:41:15;;;;;;;;;;;;;;;;;;5090617;28;48331;-79
2022/07/16 06:43:41;;;;;;;;;;;;;;;;;;5095587;28;45378;-80
2022/07/16 06:46:08;;;;;;;;;;;;;;;;;;5094080;28;47552;-80
2022/07/16 06:48:34;;;;;;;;;;;;;;;;;;5085230;28;46756;-82
2022/07/16 06:51:01;;;;;;;;;;;;;;;;;;5088805;28;43727;-81
2022/07/16 06:53:27;;;;;;;;;;;;;;;;;;5087710;28;48225;-80
2022/07/16 06:55:54;;;;;;;;;;;;;;;;;;5089750;28;44915;-81
2022/07/16 06:58:20;;;;;;;;;;;;;;;;;;5101282;28;43671;-79
2022/07/16 07:00:46;;;;;;;;;;;;;;;;;;5098641;28;46689;-79
2022/07/16 07:03:12;;;;;;;;;;;;;;;;;;5096685;28;44370;-79
2022/07/16 07:05:39;;;;;;;;;;;;;;;;;;5098228;28;43978;-78
2022/07/16 07:08:05;;;;;;;;;;;;;;;;;;5099785;28;45126;-78
2022/07/16 07:10:31;;;;;;;;;;;;;;;;;;5089577;28;43734;-79
2022/07/16 07:12:58;;;;;;;;;;;;;;;;;;5096146;28;46162;-79
2022/07/16 07:15:24;;;;;;;;;;;;;;;;;;5111246;28;48005;-79
2022/07/16 07:17:51;;;;;;;;;;;;;;;;;;5099279;28;41970;-79
2022/07/16 07:20:17;;;;;;;;;;;;;;;;;;5099470;28;45383;-79
2022/07/16 07:22:48;;;;;;;;;;;;;;;;;;5100827;28;44556;-79
2022/07/16 07:25:15;;;;;;;;;;;;;;;;;;5098622;28;47421;-79
2022/07/16 07:27:41;;;;;;;;;;;;;;;;;;5094339;28;45880;-78
2022/07/16 07:30:08;;;;;;;;;;;;;;;;;;5098281;28;42425;-79
2022/07/16 07:32:34;;;;;;;;;;;;;;;;;;5099288;28;48121;-78
2022/07/16 07:35:01;;;;;;;;;;;;;;;;;;5100255;28;48777;-79
2022/07/16 07:37:27;;;;;;;;;;;;;;;;;;5099242;28;42458;-78
2022/07/16 07:39:53;;;;;;;;;;;;;;;;;;5098148;28;49242;-78
2022/07/16 07:42:20;;;;;;;;;;;;;;;;;;5098116;28;49913;-79
2022/07/16 07:44:46;;;;;;;;;;;;;;;;;;5098066;28;45352;-82
2022/07/16 07:47:12;;;;;;;;;;;;;;;;;;5096090;28;49007;-83
2022/07/16 07:49:39;;;;;;;;;;;;;;;;;;5091541;28;42326;-87
2022/07/16 07:52:09;;;;;;;;;;;;;;;;;;5093029;28;48165;-80
2022/07/16 07:54:36;;;;;;;;;;;;;;;;;;5084906;28;45202;-81
2022/07/16 07:57:02;;;;;;;;;;;;;;;;;;5087637;28;44888;-80
2022/07/16 07:59:28;;;;;;;;;;;;;;;;;;5085730;28;47505;-79
2022/07/16 08:01:55;;;;;;;;;;;;;;;;;;5083735;28;48074;-80
2022/07/16 08:04:21;;;;;;;;;;;;;;;;;;5086633;28;44530;-81
2022/07/16 08:06:47;;;;;;;;;;;;;;;;;;5084501;28;46050;-78
2022/07/16 08:09:14;;;;;;;;;;;;;;;;;;5083709;28;42846;-80
2022/07/16 08:11:40;;;;;;;;;;;;;;;;;;5089179;28;44897;-79
2022/07/16 08:14:06;;;;;;;;;;;;;;;;;;5085767;28;45952;-79
2022/07/16 08:16:51;;;;;;;;;;;;;;;;;;5097599;28;43722;-79
2022/07/16 08:19:17;;;;;;;;;;;;;;;;;;5085933;28;45191;-77
2022/07/16 08:21:43;;;;;;;;;;;;;;;;;;5083242;28;45838;-78
2022/07/16 08:26:55;;;;;;;;;;;;;;;;;;5089974;28;47780;-80
2022/07/16 08:29:21;;;;;;;;;;;;;;;;;;5090278;28;45192;-81
2022/07/16 08:31:47;;;;;;;;;;;;;;;;;;5083269;28;48856;-81
2022/07/16 08:34:14;;;;;;;;;;;;;;;;;;5090594;28;46062;-79
2022/07/16 08:36:41;;;;;;;;;;;;;;;;;;5083940;28;41159;-78
2022/07/16 08:39:07;;;;;;;;;;;;;;;;;;5086908;28;47423;-80
2022/07/16 08:41:33;;;;;;;;;;;;;;;;;;5094666;28;44123;-79
2022/07/16 08:43:59;;;;;;;;;;;;;;;;;;5091192;28;43707;-81
2022/07/16 08:46:26;;;;;;;;;;;;;;;;;;5094057;28;43437;-79
2022/07/16 08:48:52;;;;;;;;;;;;;;;;;;5093108;28;48695;-81
2022/07/16 08:51:18;;;;;;;;;;;;;;;;;;5094693;28;47999;-79
2022/07/16 08:53:45;;;;;;;;;;;;;;;;;;5087327;28;48414;-79
2022/07/16 08:56:11;;;;;;;;;;;;;;;;;;5093178;28;43510;-79
2022/07/16 08:58:38;;;;;;;;;;;;;;;;;;5084577;28;44678;-79
2022/07/16 09:01:04;;;;;;;;;;;;;;;;;;5088680;28;46781;-79
2022/07/16 09:03:30;;;;;;;;;;;;;;;;;;5091908;28;42137;-79
2022/07/16 09:05:57;;;;;;;;;;;;;;;;;;5090928;28;46642;-79
2022/07/16 09:08:23;;;;;;;;;;;;;;;;;;5086140;28;46938;-80
2022/07/16 09:10:50;;;;;;;;;;;;;;;;;;5105042;27;43032;-80
2022/07/16 09:13:17;;;;;;;;;;;;;;;;;;5095358;28;47171;-80
2022/07/16 09:15:43;;;;;;;;;;;;;;;;;;5094305;28;44682;-78
2022/07/16 09:18:09;;;;;;;;;;;;;;;;;;5089174;28;46329;-79
2022/07/16 09:20:35;;;;;;;;;;;;;;;;;;5090516;28;44913;-80
2022/07/16 09:23:02;;;;;;;;;;;;;;;;;;5092764;28;41922;-81
2022/07/16 09:25:28;;;;;;;;;;;;;;;;;;5082010;28;45879;-80
2022/07/16 09:27:54;;;;;;;;;;;;;;;;;;5092486;28;46669;-80
2022/07/16 09:30:21;;;;;;;;;;;;;;;;;;5093715;28;41706;-81
2022/07/16 09:32:47;;;;;;;;;;;;;;;;;;5092580;28;45787;-81
2022/07/16 09:35:13;;;;;;;;;;;;;;;;;;5093512;28;46061;-81
2022/07/16 09:37:40;;;;;;;;;;;;;;;;;;5091447;28;47994;-78
2022/07/16 09:40:06;;;;;;;;;;;;;;;;;;5084798;28;46979;-79
2022/07/16 09:42:32;;;;;;;;;;;;;;;;;;5084138;28;42791;-78
2022/07/16 09:44:59;;;;;;;;;;;;;;;;;;5087308;28;48570;-80
2022/07/16 09:47:25;;;;;;;;;;;;;;;;;;5090622;28;45352;-80
2022/07/16 09:49:51;;;;;;;;;;;;;;;;;;5092288;28;42266;-81
2022/07/16 09:52:18;;;;;;;;;;;;;;;;;;5092234;28;47916;-80
2022/07/16 09:54:44;;;;;;;;;;;;;;;;;;5092678;28;48255;-79
2022/07/16 09:57:11;;;;;;;;;;;;;;;;;;5100189;27;44981;-79
2022/07/16 09:59:38;;;;;;;;;;;;;;;;;;5082591;28;46192;-81
2022/07/16 10:02:24;;;;;;;;;;;;;;;;;;5086531;28;20031;-81
2022/07/16 10:04:50;;;;;;;;;;;;;;;;;;5093881;28;46164;-81
2022/07/16 10:07:17;;;;;;;;;;;;;;;;;;5089346;28;45619;-80
2022/07/16 10:09:43;;;;;;;;;;;;;;;;;;5093691;28;43505;-80
2022/07/16 10:12:09;;;;;;;;;;;;;;;;;;5096622;28;45268;-80
2022/07/16 10:14:35;;;;;;;;;;;;;;;;;;5092080;28;46935;-80
2022/07/16 10:17:02;;;;;;;;;;;;;;;;;;5088585;28;43925;-80
2022/07/16 10:19:28;;;;;;;;;;;;;;;;;;5083281;28;46932;-80
2022/07/16 10:21:54;;;;;;;;;;;;;;;;;;5093122;28;44433;-80
2022/07/16 10:24:21;;;;;;;;;;;;;;;;;;5091664;28;47648;-80
2022/07/16 10:26:47;;;;;;;;;;;;;;;;;;5088985;28;47856;-79
2022/07/16 10:29:13;;;;;;;;;;;;;;;;;;5092054;28;44764;-79
2022/07/16 10:31:40;;;;;;;;;;;;;;;;;;5090109;28;46287;-79
2022/07/16 10:34:06;;;;;;;;;;;;;;;;;;5091010;28;47000;-79
2022/07/16 10:36:32;;;;;;;;;;;;;;;;;;5089973;28;45239;-79
2022/07/16 10:38:59;;;;;;;;;;;;;;;;;;5088441;28;46122;-80
2022/07/16 10:41:25;;;;;;;;;;;;;;;;;;5086566;28;42011;-80
2022/07/16 10:43:51;;;;;;;;;;;;;;;;;;5088092;28;46209;-80
2022/07/16 10:46:17;;;;;;;;;;;;;;;;;;5081602;28;47070;-78
2022/07/16 10:48:44;;;;;;;;;;;;;;;;;;5084927;28;43587;-78
2022/07/16 10:51:10;;;;;;;;;;;;;;;;;;5081104;28;45780;-79
2022/07/16 10:53:36;;;;;;;;;;;;;;;;;;5099096;28;47035;-79
2022/07/16 10:56:03;;;;;;;;;;;;;;;;;;5089086;28;43897;-79
2022/07/16 10:58:29;;;;;;;;;;;;;;;;;;5094570;28;46428;-80
2022/07/16 11:00:55;;;;;;;;;;;;;;;;;;5082001;28;43880;-77
2022/07/16 11:03:23;;;;;;;;;;;;;;;;;;5087293;28;44933;-79
2022/07/16 11:06:06;;;;;;;;;;;;;;;;;;5088542;28;19924;-80
2022/07/16 11:08:35;;;;;;;;;;;;;;;;;;5091577;28;43761;-79
2022/07/16 11:11:01;;;;;;;;;;;;;;;;;;5082479;28;46342;-79
2022/07/16 11:13:27;;;;;;;;;;;;;;;;;;5090746;28;47254;-77
2022/07/16 11:15:54;;;;;;;;;;;;;;;;;;5092906;28;45816;-79
2022/07/16 11:18:21;;;;;;;;;;;;;;;;;;5090105;28;48246;-79
2022/07/16 11:20:48;;;;;;;;;;;;;;;;;;5084516;28;46742;-78
2022/07/16 11:23:15;;;;;;;;;;;;;;;;;;5087925;28;46473;-77
2022/07/16 11:25:41;;;;;;;;;;;;;;;;;;5084450;28;47301;-77
2022/07/16 11:28:12;;;;;;;;;;;;;;;;;;5085416;28;42036;-78
2022/07/16 11:30:38;;;;;;;;;;;;;;;;;;5086859;28;47412;-76
2022/07/16 11:33:04;;;;;;;;;;;;;;;;;;5086833;28;46794;-77
2022/07/16 11:35:31;;;;;;;;;;;;;;;;;;5087374;28;43227;-77
2022/07/16 11:37:57;;;;;;;;;;;;;;;;;;5086732;28;46786;-78
2022/07/16 11:40:26;;;;;;;;;;;;;;;;;;5085030;28;47051;-80
2022/07/16 11:42:53;;;;;;;;;;;;;;;;;;5087703;28;43760;-79
2022/07/16 11:45:19;;;;;;;;;;;;;;;;;;5089030;28;48481;-78
2022/07/16 11:47:45;;;;;;;;;;;;;;;;;;5085234;28;44868;-79
2022/07/16 11:50:12;;;;;;;;;;;;;;;;;;5081343;28;46611;-77
2022/07/16 11:52:38;;;;;;;;;;;;;;;;;;5087905;28;48095;-77
2022/07/16 11:55:04;;;;;;;;;;;;;;;;;;5084488;28;43674;-78
2022/07/16 11:57:31;;;;;;;;;;;;;;;;;;5088491;28;48476;-79
2022/07/16 11:59:57;;;;;;;;;;;;;;;;;;5082472;28;48103;-79
2022/07/16 12:02:23;;;;;;;;;;;;;;;;;;5085142;28;45039;-78
2022/07/16 12:04:50;;;;;;;;;;;;;;;;;;5085515;28;47556;-79
2022/07/16 12:07:19;;;;;;;;;;;;;;;;;;5086603;28;41869;-78
2022/07/16 12:09:49;;;;;;;;;;;;;;;;;;5083652;28;47049;-78
2022/07/16 12:12:15;;;;;;;;;;;;;;;;;;5087631;28;46830;-79
2022/07/16 12:14:41;;;;;;;;;;;;;;;;;;5079525;28;45790;-76
2022/07/16 12:17:27;;;;;;;;;;;;;;;;;;5078176;28;19940;-80
2022/07/16 12:19:54;;;;;;;;;;;;;;;;;;5085756;28;47227;-78
2022/07/16 12:22:20;;;;;;;;;;;;;;;;;;5086848;28;43952;-77
2022/07/16 12:24:46;;;;;;;;;;;;;;;;;;5085628;28;46449;-76
2022/07/16 12:27:12;;;;;;;;;;;;;;;;;;5085900;28;48238;-76
2022/07/16 12:29:42;;;;;;;;;;;;;;;;;;5084803;28;47221;-76
2022/07/16 12:32:09;;;;;;;;;;;;;;;;;;5088573;28;46942;-76
2022/07/16 12:34:35;;;;;;;;;;;;;;;;;;5086231;28;42569;-77
2022/07/16 12:37:02;;;;;;;;;;;;;;;;;;5082487;28;46444;-79
2022/07/16 12:39:28;;;;;;;;;;;;;;;;;;5090015;28;45720;-77
2022/07/16 12:41:55;;;;;;;;;;;;;;;;;;5097694;28;45160;-76
2022/07/16 12:44:21;;;;;;;;;;;;;;;;;;5095434;28;47401;-77
2022/07/16 12:46:51;;;;;;;;;;;;;;;;;;5090948;28;46980;-76
2022/07/16 12:49:21;;;;;;;;;;;;;;;;;;5087757;28;43607;-76
2022/07/16 12:51:56;;;;;;;;;;;;;;;;;;5097758;27;47000;-78
2022/07/16 12:54:22;;;;;;;;;;;;;;;;;;5087146;28;44443;-78
2022/07/16 12:59:33;;;;;;;;;;;;;;;;;;5081379;28;47039;-78
2022/07/16 13:02:00;;;;;;;;;;;;;;;;;;5080924;28;44843;-77
2022/07/16 13:04:26;;;;;;;;;;;;;;;;;;5078186;28;46969;-78
2022/07/16 13:06:52;;;;;;;;;;;;;;;;;;5076288;28;47046;-76
2022/07/16 13:09:19;;;;;;;;;;;;;;;;;;5099296;28;42861;-76
2022/07/16 13:11:45;;;;;;;;;;;;;;;;;;5092368;28;46703;-78
2022/07/16 13:14:11;;;;;;;;;;;;;;;;;;5098484;28;44844;-78
2022/07/16 13:16:37;;;;;;;;;;;;;;;;;;5087064;28;46612;-78
2022/07/16 13:19:04;;;;;;;;;;;;;;;;;;5085528;28;45697;-77
2022/07/16 13:21:30;;;;;;;;;;;;;;;;;;5083488;28;41865;-78
2022/07/16 13:23:56;;;;;;;;;;;;;;;;;;5078785;28;46418;-78
2022/07/16 13:26:22;;;;;;;;;;;;;;;;;;5078123;28;46958;-76
2022/07/16 13:28:50;;;;;;;;;;;;;;;;;;5086731;28;43823;-77
2022/07/16 13:31:17;;;;;;;;;;;;;;;;;;5079796;28;46803;-77
2022/07/16 13:33:44;;;;;;;;;;;;;;;;;;5083582;28;45306;-78
2022/07/16 13:36:10;;;;;;;;;;;;;;;;;;5087336;28;46425;-78
2022/07/16 13:38:37;;;;;;;;;;;;;;;;;;5082604;28;47051;-79
2022/07/16 13:41:03;;;;;;;;;;;;;;;;;;5079995;27;44325;-79
2022/07/16 13:43:30;;;;;;;;;;;;;;;;;;5084758;28;44812;-79
2022/07/16 13:45:56;;;;;;;;;;;;;;;;;;5086057;28;46985;-81
2022/07/16 13:48:23;;;;;;;;;;;;;;;;;;5084560;28;43557;-78
2022/07/16 13:50:49;;;;;;;;;;;;;;;;;;5086709;28;44708;-77
2022/07/16 13:53:15;;;;;;;;;;;;;;;;;;5083896;28;48495;-78
2022/07/16 13:55:41;;;;;;;;;;;;;;;;;;5081670;28;44950;-78
2022/07/16 13:58:14;;;;;;;;;;;;;;;;;;5076581;28;47001;-77
2022/07/16 14:00:40;;;;;;;;;;;;;;;;;;5075420;28;44132;-77
2022/07/16 14:03:06;;;;;;;;;;;;;;;;;;5077398;28;44234;-77
2022/07/16 14:05:33;;;;;;;;;;;;;;;;;;5078652;28;46868;-78
2022/07/16 14:07:59;;;;;;;;;;;;;;;;;;5082976;28;43731;-77
2022/07/16 14:10:25;;;;;;;;;;;;;;;;;;5083337;28;46420;-77
2022/07/16 14:12:52;;;;;;;;;;;;;;;;;;5101648;28;47926;-77
2022/07/16 14:15:18;;;;;;;;;;;;;;;;;;5085700;28;45132;-77
2022/07/16 14:17:44;;;;;;;;;;;;;;;;;;5086832;28;45831;-77
2022/07/16 14:20:11;;;;;;;;;;;;;;;;;;5087927;28;45218;-77
2022/07/16 14:22:39;;;;;;;;;;;;;;;;;;5079696;28;34547;-77
2022/07/16 14:25:05;;;;;;;;;;;;;;;;;;5072254;28;48346;-77
2022/07/16 14:27:32;;;;;;;;;;;;;;;;;;5083391;28;44780;-77
2022/07/16 14:29:58;;;;;;;;;;;;;;;;;;5077585;28;47509;-77
2022/07/16 14:32:24;;;;;;;;;;;;;;;;;;5082674;28;46565;-76
2022/07/16 14:34:52;;;;;;;;;;;;;;;;;;5076939;28;46671;-77
2022/07/16 14:37:24;;;;;;;;;;;;;;;;;;5078558;28;47074;-77
2022/07/16 14:39:50;;;;;;;;;;;;;;;;;;5082790;28;43686;-77
2022/07/16 14:42:16;;;;;;;;;;;;;;;;;;5084812;28;47519;-77
2022/07/16 14:44:43;;;;;;;;;;;;;;;;;;5079540;28;46493;-77
2022/07/16 14:47:09;;;;;;;;;;;;;;;;;;5081565;28;43962;-77
2022/07/16 14:49:35;;;;;;;;;;;;;;;;;;5076324;28;47584;-77
2022/07/16 14:52:02;;;;;;;;;;;;;;;;;;5084661;28;44914;-77
2022/07/16 14:54:28;;;;;;;;;;;;;;;;;;5084434;28;45936;-77
2022/07/16 14:56:54;;;;;;;;;;;;;;;;;;5082629;28;44495;-77
2022/07/16 14:59:21;;;;;;;;;;;;;;;;;;5082577;28;35868;-77
2022/07/16 15:01:47;;;;;;;;;;;;;;;;;;5079102;28;47639;-77
2022/07/16 15:04:13;;;;;;;;;;;;;;;;;;5084517;28;47989;-77
2022/07/16 15:06:40;;;;;;;;;;;;;;;;;;5076304;28;44961;-78
2022/07/16 15:09:06;;;;;;;;;;;;;;;;;;5083905;28;46246;-78
2022/07/16 15:11:32;;;;;;;;;;;;;;;;;;5084183;28;48107;-78
2022/07/16 15:13:59;;;;;;;;;;;;;;;;;;5072600;28;45213;-77
2022/07/16 15:16:27;;;;;;;;;;;;;;;;;;5082859;28;43735;-77
2022/07/16 15:18:53;;;;;;;;;;;;;;;;;;5080008;28;47425;-77
2022/07/16 15:21:19;;;;;;;;;;;;;;;;;;5079316;28;46400;-78
2022/07/16 15:23:45;;;;;;;;;;;;;;;;;;5085265;28;46881;-77
2022/07/16 15:26:12;;;;;;;;;;;;;;;;;;5084582;28;43754;-78
2022/07/16 15:28:38;;;;;;;;;;;;;;;;;;5075264;28;47545;-77
2022/07/16 15:31:04;;;;;;;;;;;;;;;;;;5098314;27;48062;-77
2022/07/16 15:33:37;;;;;;;;;;;;;;;;;;5086755;28;45722;-78
2022/07/16 15:36:07;;;;;;;;;;;;;;;;;;5086141;28;45350;-78
2022/07/16 15:38:33;;;;;;;;;;;;;;;;;;5087046;28;47146;-77
2022/07/16 15:41:00;;;;;;;;;;;;;;;;;;5075028;28;42244;-78
2022/07/16 15:43:30;;;;;;;;;;;;;;;;;;5069684;28;48372;-78
2022/07/16 15:45:56;;;;;;;;;;;;;;;;;;5074568;28;44755;-78
2022/07/16 15:48:22;;;;;;;;;;;;;;;;;;5083752;28;47456;-78
2022/07/16 15:50:48;;;;;;;;;;;;;;;;;;5083389;28;46992;-78
2022/07/16 15:53:15;;;;;;;;;;;;;;;;;;5086852;28;43747;-77
2022/07/16 15:55:41;;;;;;;;;;;;;;;;;;5087124;28;45130;-77
2022/07/16 15:58:07;;;;;;;;;;;;;;;;;;5078688;28;46992;-77
2022/07/16 16:00:33;;;;;;;;;;;;;;;;;;5073314;28;42377;-78
2022/07/16 16:03:01;;;;;;;;;;;;;;;;;;5086749;28;47742;-77
2022/07/16 16:05:28;;;;;;;;;;;;;;;;;;5087703;28;42495;-77
2022/07/16 16:07:54;;;;;;;;;;;;;;;;;;5090077;28;46752;-77
2022/07/16 16:10:20;;;;;;;;;;;;;;;;;;5087793;28;46959;-78
2022/07/16 16:12:46;;;;;;;;;;;;;;;;;;5090368;28;44636;-78
2022/07/16 16:15:13;;;;;;;;;;;;;;;;;;5075220;28;47416;-77
2022/07/16 16:17:40;;;;;;;;;;;;;;;;;;5083644;28;49543;-78
2022/07/16 16:20:06;;;;;;;;;;;;;;;;;;5079828;28;45324;-78
2022/07/16 16:22:34;;;;;;;;;;;;;;;;;;5088656;28;46288;-77
2022/07/16 16:25:01;;;;;;;;;;;;;;;;;;5090385;28;45942;-78
2022/07/16 16:27:33;;;;;;;;;;;;;;;;;;5074596;28;47805;-77
2022/07/16 16:29:59;;;;;;;;;;;;;;;;;;5069789;28;48105;-76
2022/07/16 16:32:25;;;;;;;;;;;;;;;;;;5086020;28;46234;-77
2022/07/16 16:34:52;;;;;;;;;;;;;;;;;;5090275;28;47696;-78
2022/07/16 16:37:18;;;;;;;;;;;;;;;;;;5085636;28;48433;-77
2022/07/16 16:39:44;;;;;;;;;;;;;;;;;;5078942;28;44768;-77
2022/07/16 16:42:10;;;;;;;;;;;;;;;;;;5088462;28;45820;-77
2022/07/16 16:44:38;;;;;;;;;;;;;;;;;;5076879;28;48160;-77
2022/07/16 16:47:04;;;;;;;;;;;;;;;;;;5087571;28;45724;-77
2022/07/16 16:49:30;;;;;;;;;;;;;;;;;;5087439;28;48363;-77
2022/07/16 16:51:56;;;;;;;;;;;;;;;;;;5088333;28;45111;-77
2022/07/16 16:54:23;;;;;;;;;;;;;;;;;;5103985;27;47506;-77
2022/07/16 16:56:49;;;;;;;;;;;;;;;;;;5087050;28;47075;-77
2022/07/16 16:59:16;;;;;;;;;;;;;;;;;;5086012;28;44681;-77